createdAt,value
2023-02-06T00:00:26.638Z,64.00
2023-02-06T00:03:24.064Z,56.71
2023-02-06T00:06:21.808Z,51.46
2023-02-06T00:09:19.232Z,50.27
2023-02-06T00:12:16.876Z,50.23
2023-02-06T00:15:14.322Z,50.68
2023-02-06T00:18:12.139Z,51.21
2023-02-06T00:21:09.781Z,51.86
2023-02-06T00:24:07.216Z,52.45
2023-02-06T00:27:05.002Z,53.16
2023-02-06T00:30:02.436Z,53.88
2023-02-06T00:33:00.162Z,54.43
2023-02-06T00:35:57.621Z,55.11
2023-02-06T00:38:55.456Z,55.69
2023-02-06T00:41:53.220Z,56.40
2023-02-06T00:44:50.656Z,57.14
2023-02-06T00:47:48.467Z,57.52
2023-02-06T00:50:45.922Z,57.95
2023-02-06T00:53:43.681Z,58.43
2023-02-06T00:56:41.121Z,58.79
2023-02-06T00:59:38.861Z,59.03
2023-02-06T01:02:36.358Z,59.44
2023-02-06T01:05:34.473Z,59.84
2023-02-06T01:08:32.367Z,60.26
2023-02-06T01:11:29.798Z,60.52
2023-02-06T01:14:27.535Z,60.61
2023-02-06T01:17:24.989Z,60.96
2023-02-06T01:20:24.096Z,61.27
2023-02-06T01:23:21.538Z,61.34
2023-02-06T01:26:19.325Z,61.72
2023-02-06T01:29:16.773Z,65.85
2023-02-06T01:32:14.541Z,78.52
2023-02-06T01:35:11.956Z,78.39
2023-02-06T01:38:10.186Z,74.23
2023-02-06T01:41:07.983Z,72.47
2023-02-06T01:44:05.437Z,68.63
2023-02-06T01:47:03.171Z,64.32
2023-02-06T01:50:00.621Z,62.40
2023-02-06T01:52:58.411Z,61.73
2023-02-06T01:55:56.169Z,56.19
2023-02-06T01:58:53.587Z,50.86
2023-02-06T02:01:51.407Z,49.88
2023-02-06T02:04:48.898Z,50.10
2023-02-06T02:07:46.722Z,50.63
2023-02-06T02:10:44.185Z,51.21
2023-02-06T02:13:41.957Z,51.97
2023-02-06T02:16:39.724Z,52.77
2023-02-06T02:19:37.156Z,53.54
2023-02-06T02:22:34.938Z,54.10
2023-02-06T02:25:32.389Z,54.63
2023-02-06T02:28:30.068Z,55.29
2023-02-06T02:31:27.562Z,55.82
2023-02-06T02:34:25.183Z,56.41
2023-02-06T02:37:22.866Z,56.89
2023-02-06T02:40:20.311Z,57.19
2023-02-06T02:43:17.966Z,57.62
2023-02-06T02:46:15.657Z,57.92
2023-02-06T02:49:13.283Z,58.30
2023-02-06T02:52:10.749Z,58.49
2023-02-06T02:55:08.545Z,58.87
2023-02-06T02:58:05.966Z,59.16
2023-02-06T03:01:03.694Z,59.35
2023-02-06T03:04:01.435Z,59.63
2023-02-06T03:06:58.903Z,59.76
2023-02-06T03:09:56.520Z,59.91
2023-02-06T03:12:53.963Z,60.07
2023-02-06T03:15:51.668Z,60.39
2023-02-06T03:18:49.116Z,60.44
2023-02-06T03:21:46.824Z,60.62
2023-02-06T03:24:44.562Z,60.79
2023-02-06T03:27:41.996Z,61.01
2023-02-06T03:30:40.319Z,61.14
2023-02-06T03:33:37.735Z,61.36
2023-02-06T03:36:35.530Z,61.45
2023-02-06T03:39:32.981Z,61.51
2023-02-06T03:42:30.761Z,61.63
2023-02-06T03:45:28.547Z,61.72
2023-02-06T03:48:25.981Z,61.88
2023-02-06T03:51:23.554Z,66.19
2023-02-06T03:54:20.993Z,72.23
2023-02-06T03:57:19.796Z,68.82
2023-02-06T04:00:17.210Z,66.42
2023-02-06T04:03:14.926Z,65.42
2023-02-06T04:06:12.585Z,64.51
2023-02-06T04:09:10.016Z,63.12
2023-02-06T04:12:07.818Z,62.53
2023-02-06T04:15:05.263Z,65.42
2023-02-06T04:18:03.940Z,74.13
2023-02-06T04:21:02.028Z,73.61
2023-02-06T04:23:59.826Z,71.39
2023-02-06T04:26:57.270Z,68.21
2023-02-06T04:29:54.886Z,65.20
2023-02-06T04:32:52.307Z,57.31
2023-02-06T04:35:49.896Z,48.63
2023-02-06T04:38:47.310Z,46.58
2023-02-06T04:41:45.073Z,46.51
2023-02-06T04:44:42.843Z,47.11
2023-02-06T04:47:40.264Z,47.84
2023-02-06T04:50:37.969Z,48.60
2023-02-06T04:53:35.420Z,49.52
2023-02-06T04:56:33.205Z,50.25
2023-02-06T04:59:30.965Z,51.02
2023-02-06T05:02:28.417Z,51.75
2023-02-06T05:05:26.194Z,52.41
2023-02-06T05:08:23.617Z,53.17
2023-02-06T05:11:21.317Z,53.92
2023-02-06T05:14:18.739Z,54.49
2023-02-06T05:17:16.404Z,55.12
2023-02-06T05:20:14.125Z,55.65
2023-02-06T05:23:11.556Z,56.23
2023-02-06T05:26:09.323Z,56.71
2023-02-06T05:29:06.745Z,57.02
2023-02-06T05:32:04.428Z,57.37
2023-02-06T05:35:01.889Z,57.64
2023-02-06T05:37:59.691Z,58.02
2023-02-06T05:40:57.408Z,58.33
2023-02-06T05:43:54.842Z,58.66
2023-02-06T05:46:52.682Z,58.89
2023-02-06T05:49:50.145Z,59.00
2023-02-06T05:52:47.888Z,59.24
2023-02-06T05:55:45.664Z,59.48
2023-02-06T05:58:43.130Z,59.55
2023-02-06T06:01:40.757Z,59.65
2023-02-06T06:04:38.175Z,59.89
2023-02-06T06:07:35.934Z,60.10
2023-02-06T06:10:33.394Z,60.27
2023-02-06T06:13:31.041Z,60.44
2023-02-06T06:16:28.708Z,60.67
2023-02-06T06:19:26.141Z,60.83
2023-02-06T06:22:23.835Z,60.98
2023-02-06T06:25:21.256Z,61.20
2023-02-06T06:28:18.948Z,61.44
2023-02-06T06:31:16.478Z,61.65
2023-02-06T06:34:14.320Z,61.89
2023-02-06T06:37:12.059Z,66.44
2023-02-06T06:40:09.500Z,69.87
2023-02-06T06:43:07.529Z,68.04
2023-02-06T06:46:05.338Z,68.84
2023-02-06T06:49:03.106Z,65.67
2023-02-06T06:52:00.560Z,62.98
2023-02-06T06:54:58.261Z,61.76
2023-02-06T06:57:55.681Z,60.82
2023-02-06T07:00:53.396Z,59.99
2023-02-06T07:03:52.261Z,58.31
2023-02-06T07:06:49.675Z,56.30
2023-02-06T07:09:47.487Z,55.88
2023-02-06T07:12:44.906Z,56.03
2023-02-06T07:15:42.639Z,56.24
2023-02-06T07:18:41.964Z,56.53
2023-02-06T07:21:39.645Z,56.86
2023-02-06T07:24:37.103Z,57.15
2023-02-06T07:27:34.915Z,57.44
2023-02-06T07:30:32.419Z,57.70
2023-02-06T07:33:30.718Z,57.96
2023-02-06T07:36:28.529Z,58.21
2023-02-06T07:39:26.064Z,58.55
2023-02-06T07:42:23.748Z,58.74
2023-02-06T07:45:21.210Z,58.80
2023-02-06T07:48:18.964Z,58.91
2023-02-06T07:51:16.418Z,59.02
2023-02-06T07:54:14.120Z,59.14
2023-02-06T07:57:11.605Z,59.21
2023-02-06T08:03:28.290Z,59.23
2023-02-06T08:06:25.720Z,59.28
2023-02-06T08:09:23.510Z,59.49
2023-02-06T08:12:20.935Z,59.58
2023-02-06T08:15:18.698Z,59.46
2023-02-06T08:18:16.515Z,59.53
2023-02-06T08:21:13.954Z,59.52
2023-02-06T08:24:11.711Z,59.58
2023-02-06T08:27:09.142Z,59.60
2023-02-06T08:30:08.823Z,59.69
2023-02-06T08:33:06.527Z,59.73
2023-02-06T08:36:04.938Z,59.56
2023-02-06T08:39:02.622Z,59.33
2023-02-06T08:42:00.092Z,59.38
2023-02-06T08:44:57.772Z,59.18
2023-02-06T08:47:55.202Z,58.94
2023-02-06T08:50:52.871Z,58.69
2023-02-06T08:53:50.440Z,58.52
2023-02-06T08:56:48.212Z,58.56
2023-02-06T08:59:46.368Z,58.31
2023-02-06T09:02:44.102Z,58.01
2023-02-06T09:05:42.673Z,58.03
2023-02-06T09:08:40.114Z,57.83
2023-02-06T09:11:37.836Z,57.56
2023-02-06T09:14:35.530Z,57.58
2023-02-06T09:17:33.351Z,57.39
2023-02-06T09:20:30.776Z,57.16
2023-02-06T09:23:29.331Z,57.01
2023-02-06T09:26:26.783Z,56.88
2023-02-06T09:29:24.468Z,56.60
2023-02-06T09:32:27.096Z,56.48
2023-02-06T09:35:24.545Z,56.39
2023-02-06T09:38:22.551Z,56.08
2023-02-06T09:41:20.147Z,55.81
2023-02-06T09:44:18.203Z,55.80
2023-02-06T09:47:15.837Z,55.77
2023-02-06T09:50:13.278Z,55.03
2023-02-06T09:53:11.008Z,54.75
2023-02-06T09:56:08.478Z,54.43
2023-02-06T09:59:06.742Z,54.37
2023-02-06T10:02:04.266Z,54.23
2023-02-06T10:05:02.023Z,54.11
2023-02-06T10:08:00.644Z,53.68
2023-02-06T10:10:58.073Z,53.43
2023-02-06T10:13:55.895Z,53.25
2023-02-06T10:16:53.356Z,53.00
2023-02-06T10:19:51.063Z,52.56
2023-02-06T10:22:48.533Z,52.32
2023-02-06T10:25:46.219Z,52.05
2023-02-06T10:28:43.703Z,51.77
2023-02-06T10:31:41.528Z,51.82
2023-02-06T10:34:40.960Z,51.52
2023-02-06T10:37:38.425Z,51.51
2023-02-06T10:40:36.175Z,51.26
2023-02-06T10:43:33.639Z,50.76
2023-02-06T10:46:31.271Z,50.22
2023-02-06T10:49:30.747Z,50.04
2023-02-06T10:52:28.432Z,50.18
2023-02-06T10:55:26.554Z,50.36
2023-02-06T10:58:24.034Z,49.75
2023-02-06T11:01:26.489Z,49.74
2023-02-06T11:04:24.380Z,49.44
2023-02-06T11:07:25.409Z,48.97
2023-02-06T11:10:22.859Z,48.94
2023-02-06T11:13:21.919Z,48.92
2023-02-06T11:16:19.795Z,48.92
2023-02-06T11:19:17.477Z,48.95
2023-02-06T11:22:15.272Z,48.83
2023-02-06T11:25:13.055Z,48.73
2023-02-06T11:28:10.513Z,49.14
2023-02-06T11:31:08.273Z,48.92
2023-02-06T11:34:05.757Z,48.95
2023-02-06T11:37:03.529Z,48.82
2023-02-06T11:40:00.999Z,49.17
2023-02-06T11:42:58.740Z,48.83
2023-02-06T11:45:56.512Z,48.84
2023-02-06T11:48:53.975Z,49.76
2023-02-06T11:51:52.112Z,48.82
2023-02-06T11:54:49.547Z,48.59
2023-02-06T11:57:47.270Z,47.85
2023-02-06T12:00:44.705Z,47.30
2023-02-06T12:03:42.576Z,47.71
2023-02-06T12:06:40.622Z,47.15
2023-02-06T12:09:38.060Z,46.99
2023-02-06T12:12:35.750Z,46.59
2023-02-06T12:15:46.026Z,46.40
2023-02-06T12:18:45.544Z,46.11
2023-02-06T12:21:43.050Z,46.04
2023-02-06T12:24:42.648Z,46.19
2023-02-06T12:27:40.150Z,46.55
2023-02-06T12:30:38.079Z,46.66
2023-02-06T12:33:36.259Z,46.32
2023-02-06T12:36:33.961Z,46.16
2023-02-06T12:39:31.645Z,46.12
2023-02-06T12:42:29.085Z,46.36
2023-02-06T12:45:28.818Z,46.47
2023-02-06T12:48:26.331Z,46.24
2023-02-06T12:51:24.146Z,46.23
2023-02-06T12:54:23.413Z,46.65
2023-02-06T12:57:20.881Z,46.63
2023-02-06T13:00:18.688Z,46.11
2023-02-06T13:03:16.137Z,46.26
2023-02-06T13:06:13.824Z,46.11
2023-02-06T13:09:11.257Z,46.23
2023-02-06T13:12:09.021Z,45.90
2023-02-06T13:15:06.484Z,46.08
2023-02-06T13:18:04.247Z,46.13
2023-02-06T13:21:02.017Z,46.02
2023-02-06T13:23:59.459Z,45.84
2023-02-06T13:26:57.978Z,46.48
2023-02-06T13:29:55.425Z,45.97
2023-02-06T13:32:53.706Z,46.16
2023-02-06T13:35:51.195Z,46.32
2023-02-06T13:38:48.938Z,46.15
2023-02-06T13:41:46.400Z,46.00
2023-02-06T13:44:44.178Z,45.94
2023-02-06T13:47:41.689Z,45.90
2023-02-06T13:50:39.441Z,45.97
2023-02-06T13:53:36.909Z,45.91
2023-02-06T13:56:34.528Z,46.00
2023-02-06T13:59:32.292Z,46.22
2023-02-06T14:02:31.237Z,46.27
2023-02-06T14:05:28.844Z,46.40
2023-02-06T14:08:26.291Z,46.73
2023-02-06T14:11:44.028Z,46.86
2023-02-06T14:14:43.898Z,47.07
2023-02-06T14:17:41.624Z,47.32
2023-02-06T14:20:40.504Z,47.41
2023-02-06T14:23:37.944Z,47.63
2023-02-06T14:26:35.730Z,47.79
2023-02-06T14:29:33.203Z,47.72
2023-02-06T14:32:31.056Z,47.82
2023-02-06T14:35:28.475Z,47.60
2023-02-06T14:38:26.194Z,47.29
2023-02-06T14:41:23.976Z,47.31
2023-02-06T14:44:21.472Z,47.44
2023-02-06T14:47:19.441Z,47.95
2023-02-06T14:50:16.974Z,48.12
2023-02-06T14:53:14.623Z,48.13
2023-02-06T14:56:12.492Z,48.22
2023-02-06T14:59:10.248Z,48.28
2023-02-06T15:02:08.010Z,48.48
2023-02-06T15:05:05.448Z,48.63
2023-02-06T15:08:03.236Z,48.80
2023-02-06T15:11:00.671Z,48.98
2023-02-06T15:13:58.471Z,49.22
2023-02-06T15:17:00.009Z,49.46
2023-02-06T15:19:57.439Z,49.63
2023-02-06T15:23:02.157Z,49.83
2023-02-06T15:26:09.359Z,50.04
2023-02-06T15:29:07.682Z,50.27
2023-02-06T15:32:05.142Z,50.59
2023-02-06T15:35:02.901Z,50.66
2023-02-06T15:38:00.664Z,50.72
2023-02-06T15:40:58.139Z,50.84
2023-02-06T15:43:55.873Z,50.99
2023-02-06T15:46:53.294Z,51.08
2023-02-06T15:49:51.470Z,51.18
2023-02-06T15:52:48.919Z,51.33
2023-02-06T15:55:46.636Z,51.53
2023-02-06T15:58:44.278Z,51.71
2023-02-06T16:01:41.751Z,51.83
2023-02-06T16:04:40.070Z,51.99
2023-02-06T16:07:37.595Z,52.20
2023-02-06T16:10:35.615Z,52.39
2023-02-06T16:13:33.722Z,52.61
2023-02-06T16:16:31.301Z,52.82
2023-02-06T16:19:29.109Z,53.08
2023-02-06T16:22:26.541Z,53.23
2023-02-06T16:25:26.100Z,53.46
2023-02-06T16:28:23.953Z,53.72
2023-02-06T16:31:21.834Z,53.90
2023-02-06T16:34:19.847Z,54.09
2023-02-06T16:37:17.353Z,54.27
2023-02-06T16:40:15.001Z,54.47
2023-02-06T16:43:12.626Z,54.66
2023-02-06T16:46:10.575Z,54.82
2023-02-06T16:49:08.090Z,55.10
2023-02-06T16:52:06.836Z,55.32
2023-02-06T16:55:06.550Z,55.63
2023-02-06T16:58:04.437Z,56.03
2023-02-06T17:01:02.648Z,56.32
2023-02-06T17:04:00.344Z,56.55
2023-02-06T17:06:58.181Z,56.77
2023-02-06T17:09:55.685Z,57.05
2023-02-06T17:12:53.304Z,57.12
2023-02-06T17:15:52.688Z,57.19
2023-02-06T17:18:50.521Z,57.31
2023-02-06T17:21:49.142Z,57.45
2023-02-06T17:24:46.906Z,57.53
2023-02-06T17:27:44.660Z,57.63
2023-02-06T17:30:42.253Z,57.76
2023-02-06T17:33:40.020Z,57.91
2023-02-06T17:36:42.741Z,58.08
2023-02-06T17:39:40.247Z,58.15
2023-02-06T17:42:38.647Z,58.38
2023-02-06T17:45:36.381Z,58.50
2023-02-06T17:48:36.548Z,58.63
2023-02-06T17:51:34.736Z,58.82
2023-02-06T17:54:32.432Z,58.98
2023-02-06T17:57:31.512Z,59.16
2023-02-06T18:00:29.471Z,59.28
2023-02-06T18:03:27.941Z,59.36
2023-02-06T18:06:26.030Z,59.41
2023-02-06T18:09:25.752Z,59.60
2023-02-06T18:12:23.845Z,59.72
2023-02-06T18:15:21.729Z,59.79
2023-02-06T18:18:19.926Z,59.85
2023-02-06T18:21:23.056Z,59.94
2023-02-06T18:24:21.750Z,60.19
2023-02-06T18:27:20.229Z,60.36
2023-02-06T18:30:23.154Z,60.53
2023-02-06T18:33:21.493Z,60.61
2023-02-06T18:36:21.650Z,60.75
2023-02-06T18:39:20.455Z,60.92
2023-02-06T18:42:36.023Z,60.99
2023-02-06T18:45:34.882Z,61.15
2023-02-06T18:48:35.328Z,61.32
2023-02-06T18:51:33.491Z,61.48
2023-02-06T18:54:32.211Z,61.63
2023-02-06T18:57:32.196Z,61.76
2023-02-06T19:00:32.869Z,61.81
2023-02-06T19:03:31.313Z,61.98
2023-02-06T19:06:32.871Z,62.17
2023-02-06T19:09:31.087Z,66.25
2023-02-06T19:12:30.565Z,71.30
2023-02-06T19:15:30.608Z,68.05
2023-02-06T19:18:38.895Z,66.05
2023-02-06T19:21:38.631Z,64.67
2023-02-06T19:24:37.294Z,63.62
2023-02-06T19:27:36.053Z,66.32
2023-02-06T19:30:35.875Z,64.94
2023-02-06T19:33:34.454Z,62.60
2023-02-06T19:36:34.110Z,62.71
2023-02-06T19:39:34.834Z,61.38
2023-02-06T19:42:33.011Z,60.70
2023-02-06T19:45:31.913Z,60.21
2023-02-06T19:48:32.555Z,58.92
2023-02-06T19:51:31.237Z,56.60
2023-02-06T19:54:30.131Z,56.04
2023-02-06T19:57:28.990Z,56.11
2023-02-06T20:00:27.782Z,56.43
2023-02-06T20:03:28.274Z,56.81
2023-02-06T20:06:27.277Z,57.21
2023-02-06T20:09:25.812Z,57.76
2023-02-06T20:12:25.675Z,58.33
2023-02-06T20:15:24.607Z,58.88
2023-02-06T20:18:23.488Z,59.24
2023-02-06T20:21:22.641Z,59.77
2023-02-06T20:24:23.311Z,60.04
2023-02-06T20:27:21.571Z,60.54
2023-02-06T20:30:23.094Z,61.08
2023-02-06T20:33:21.459Z,61.45
2023-02-06T20:36:20.879Z,61.80
2023-02-06T20:39:20.185Z,66.74
2023-02-06T20:42:20.164Z,69.41
2023-02-06T20:45:18.885Z,68.86
2023-02-06T20:48:17.889Z,68.13
2023-02-06T20:51:17.902Z,65.01
2023-02-06T20:54:16.137Z,65.97
2023-02-06T20:57:15.773Z,63.53
2023-02-06T21:00:15.810Z,63.95
2023-02-06T21:03:13.530Z,62.12
2023-02-06T21:06:12.131Z,60.85
2023-02-06T21:09:09.887Z,61.28
2023-02-06T21:12:08.934Z,61.24
2023-02-06T21:15:06.737Z,61.33
2023-02-06T21:18:05.282Z,61.28
2023-02-06T21:21:06.771Z,61.34
2023-02-06T21:24:04.433Z,61.20
2023-02-06T21:27:02.159Z,63.14
2023-02-06T21:29:59.601Z,62.79
2023-02-06T21:36:23.343Z,63.87
2023-02-06T21:39:21.086Z,62.55
2023-02-06T21:42:21.470Z,61.22
2023-02-06T21:45:18.881Z,60.93
2023-02-06T21:48:16.941Z,64.37
2023-02-06T21:51:14.379Z,70.11
2023-02-06T21:54:11.975Z,68.93
2023-02-06T21:57:09.418Z,64.75
2023-02-06T22:00:07.186Z,58.25
2023-02-06T22:03:04.662Z,52.56
2023-02-06T22:06:07.737Z,51.39
2023-02-06T22:09:07.887Z,51.53
2023-02-06T22:12:07.214Z,52.06
2023-02-06T22:15:04.941Z,52.78
2023-02-06T22:18:02.365Z,53.60
2023-02-06T22:21:00.149Z,54.32
2023-02-06T22:23:57.577Z,55.21
2023-02-06T22:26:55.376Z,56.07
2023-02-06T22:29:52.806Z,56.76
2023-02-06T22:32:50.542Z,57.51
2023-02-06T22:35:48.006Z,58.13
2023-02-06T22:38:45.615Z,58.80
2023-02-06T22:41:44.014Z,59.39
2023-02-06T22:44:41.437Z,60.02
2023-02-06T22:47:39.246Z,60.54
2023-02-06T22:50:36.674Z,61.12
2023-02-06T22:53:34.350Z,61.58
2023-02-06T22:56:33.697Z,65.86
2023-02-06T22:59:31.110Z,73.13
2023-02-06T23:02:28.753Z,69.29
2023-02-06T23:05:26.186Z,68.39
2023-02-06T23:08:23.909Z,66.36
2023-02-06T23:11:21.348Z,65.28
2023-02-06T23:14:19.140Z,64.71
2023-02-06T23:17:16.904Z,64.31
2023-02-06T23:20:14.599Z,63.98
2023-02-06T23:23:12.208Z,63.55
2023-02-06T23:26:10.386Z,63.05
2023-02-06T23:29:08.660Z,62.71
2023-02-06T23:32:06.144Z,62.52
2023-02-06T23:35:04.813Z,62.30
2023-02-06T23:38:02.236Z,62.01
2023-02-06T23:40:59.967Z,61.80
2023-02-06T23:43:57.678Z,61.61
2023-02-06T23:46:55.132Z,61.35
2023-02-06T23:49:52.810Z,61.09
2023-02-06T23:52:50.643Z,60.86
2023-02-06T23:55:48.292Z,60.73
2023-02-06T23:58:45.964Z,60.62
